This is the latest recevied weather packets stored in our database for station/object OE3EMC-13. If no packets are shown the sender has not sent any weather packets the latest 1 day(s).
| Time | Temp. | Humidity | Pressure | Rain* | Wind** | Luminosity | Snow |
|---|---|---|---|---|---|---|---|
| 1778077393 | 21.67° C | 38% | 1100 hPa | 0 mm | - | - | - |
| 1778076793 | 24.44° C | 36% | 1100 hPa | 0 mm | - | - | - |
| 1778075591 | 24.44° C | 35% | 1100 hPa | 0 mm | - | - | - |
| 1778074991 | 24.44° C | 35% | 1100 hPa | 0 mm | - | - | - |
| 1778074391 | 24.44° C | 36% | 1100 hPa | 0 mm | - | - | - |
| 1778070790 | 21.67° C | 41% | 1100 hPa | 0 mm | - | - | - |
| 1778067195 | 20° C | 45% | 1100 hPa | 0 mm | - | - | - |
| 1778066594 | 20° C | 45% | 1100 hPa | 0 mm | - | - | - |
| 1778063593 | 19.44° C | 51% | 1100 hPa | 0 mm | - | - | - |
| 1778062993 | 19.44° C | 51% | 1100 hPa | 0 mm | - | - | - |
| 1778062393 | 19.44° C | 50% | 1100 hPa | 0 mm | - | - | - |
| 1778059393 | 19.44° C | 50% | 1100 hPa | 0 mm | - | - | - |
| 1778058793 | 18.89° C | 52% | 1100 hPa | 0 mm | - | - | - |
| 1778058193 | 18.89° C | 52% | 1100 hPa | 0 mm | - | - | - |
| 1778057593 | 18.33° C | 57% | 1100 hPa | 0 mm | - | - | - |
| 1778055191 | 15° C | 68% | 1100 hPa | 0 mm | - | - | - |
| 1778054591 | 15° C | 68% | 1100 hPa | 0 mm | - | - | - |
| 1778052190 | 14.44° C | 69% | 1100 hPa | 0 mm | - | - | - |
| 1778051590 | 13.33° C | 70% | 1100 hPa | 0 mm | - | - | - |
| 1778050391 | 12.22° C | 78% | 1100 hPa | 0 mm | - | - | - |
| 1778049791 | 12.22° C | 78% | 1100 hPa | 0 mm | - | - | - |
| 1778049191 | 11.67° C | 79% | 1100 hPa | 0 mm | - | - | - |
| 1778048591 | 11.67° C | 79% | 1100 hPa | 0 mm | - | - | - |
| 1778047394 | 11.67° C | 82% | 1100 hPa | 0 mm | - | - | - |
| 1778046794 | 11.11° C | 84% | 1100 hPa | 0 mm | - | - | - |
* Rain latest hour (hover to see other rain measurements)
** Current wind speed in m/s (hover to see current wind gust speed)